Schroeder, Minnesota
Current Conditions -  °F | °C
As of 3:34 AM on Sunday 26 Oct 2014 (Local Time) from KCKC Reporting Station
Clear Clear  
Wind Chill: 29°   Ceiling: Unl
Heat Index: 37°   Visibility: 10mi
Dew Point: 27°   Wind: 13mph
Humidity: 65%   Direction: 300°WNW
Pressure: 29.89"   Gusts: 20mph
Location:  47.54°N, 90.89°W
Report Text: KCKC 260834Z AUTO 30011G17KT 10SM CLR 03/M03 A2989 RMK AO2
Loading
Personal Weather Stations






























Interactive Weather Map
Tropical Storm Tracking
New forecast layout! Learn more

10-Day Weather Forecast

Advertisements
Track Severe Weather on mobile